sensor_id;sensor_type;location;lat;lon;timestamp;pressure;altitude;pressure_sealevel;temperature;humidity
49825;BME280;35714;55.708;37.478;2023-02-28T00:01:05;99859.94;;;-6.26;65.59
49825;BME280;35714;55.708;37.478;2023-02-28T00:03:30;99855.13;;;-6.32;65.94
49825;BME280;35714;55.708;37.478;2023-02-28T00:06:02;99851.41;;;-6.41;65.89
49825;BME280;35714;55.708;37.478;2023-02-28T00:08:28;99850.44;;;-6.40;66.13
49825;BME280;35714;55.708;37.478;2023-02-28T00:10:53;99847.56;;;-6.37;65.70
49825;BME280;35714;55.708;37.478;2023-02-28T00:13:19;99848.03;;;-6.43;65.58
49825;BME280;35714;55.708;37.478;2023-02-28T00:15:45;99842.75;;;-6.43;65.90
49825;BME280;35714;55.708;37.478;2023-02-28T00:18:11;99837.91;;;-6.49;65.91
49825;BME280;35714;55.708;37.478;2023-02-28T00:20:37;99845.25;;;-6.42;65.81
49825;BME280;35714;55.708;37.478;2023-02-28T00:23:03;99829.66;;;-6.45;65.55
49825;BME280;35714;55.708;37.478;2023-02-28T00:25:28;99823.31;;;-6.42;65.59
49825;BME280;35714;55.708;37.478;2023-02-28T00:27:54;99835.69;;;-6.43;65.29
49825;BME280;35714;55.708;37.478;2023-02-28T00:30:22;99831.97;;;-6.40;64.95
49825;BME280;35714;55.708;37.478;2023-02-28T00:32:48;99826.78;;;-6.53;65.02
49825;BME280;35714;55.708;37.478;2023-02-28T00:35:14;99829.91;;;-6.48;65.11
49825;BME280;35714;55.708;37.478;2023-02-28T00:37:41;99836.94;;;-6.60;65.24
49825;BME280;35714;55.708;37.478;2023-02-28T00:40:07;99823.50;;;-6.68;65.04
49825;BME280;35714;55.708;37.478;2023-02-28T00:42:34;99820.34;;;-6.73;65.74
49825;BME280;35714;55.708;37.478;2023-02-28T00:45:00;99818.16;;;-6.79;65.75
49825;BME280;35714;55.708;37.478;2023-02-28T00:47:26;99809.09;;;-6.75;65.60
49825;BME280;35714;55.708;37.478;2023-02-28T00:49:52;99810.25;;;-6.79;65.52
49825;BME280;35714;55.708;37.478;2023-02-28T00:52:18;99811.72;;;-6.75;65.46
49825;BME280;35714;55.708;37.478;2023-02-28T00:54:43;99812.41;;;-6.84;65.99
49825;BME280;35714;55.708;37.478;2023-02-28T00:57:09;99806.69;;;-6.78;66.03
49825;BME280;35714;55.708;37.478;2023-02-28T00:59:35;99807.91;;;-6.71;65.80
49825;BME280;35714;55.708;37.478;2023-02-28T01:02:00;99808.75;;;-6.71;65.57
49825;BME280;35714;55.708;37.478;2023-02-28T01:04:26;99799.28;;;-6.62;65.73
49825;BME280;35714;55.708;37.478;2023-02-28T01:06:51;99789.59;;;-6.61;65.54
49825;BME280;35714;55.708;37.478;2023-02-28T01:09:17;99792.81;;;-6.58;65.18
49825;BME280;35714;55.708;37.478;2023-02-28T01:11:43;99793.44;;;-6.54;64.78
49825;BME280;35714;55.708;37.478;2023-02-28T01:14:13;99784.69;;;-6.55;64.75
49825;BME280;35714;55.708;37.478;2023-02-28T01:16:39;99772.06;;;-6.62;64.72
49825;BME280;35714;55.708;37.478;2023-02-28T01:19:05;99767.28;;;-6.57;64.66
49825;BME280;35714;55.708;37.478;2023-02-28T01:21:30;99767.50;;;-6.60;64.88
49825;BME280;35714;55.708;37.478;2023-02-28T01:23:57;99744.63;;;-6.71;64.57
49825;BME280;35714;55.708;37.478;2023-02-28T01:26:23;99747.97;;;-6.69;64.68
49825;BME280;35714;55.708;37.478;2023-02-28T01:28:50;99749.66;;;-6.68;64.78
49825;BME280;35714;55.708;37.478;2023-02-28T01:31:18;99752.78;;;-6.63;64.50
49825;BME280;35714;55.708;37.478;2023-02-28T01:33:45;99751.78;;;-6.73;64.59
49825;BME280;35714;55.708;37.478;2023-02-28T01:36:19;99732.63;;;-6.75;65.14
49825;BME280;35714;55.708;37.478;2023-02-28T01:38:46;99732.63;;;-6.64;64.44
49825;BME280;35714;55.708;37.478;2023-02-28T01:41:28;99705.41;;;-6.76;65.01
49825;BME280;35714;55.708;37.478;2023-02-28T01:44:03;99718.94;;;-6.80;64.99
49825;BME280;35714;55.708;37.478;2023-02-28T01:46:30;99713.81;;;-6.71;65.48
49825;BME280;35714;55.708;37.478;2023-02-28T01:51:43;99694.81;;;-6.87;65.89
49825;BME280;35714;55.708;37.478;2023-02-28T01:54:15;99689.66;;;-6.89;66.04
49825;BME280;35714;55.708;37.478;2023-02-28T01:56:49;99690.41;;;-6.86;66.34
49825;BME280;35714;55.708;37.478;2023-02-28T01:59:45;99681.41;;;-6.84;66.31
49825;BME280;35714;55.708;37.478;2023-02-28T02:02:13;99681.06;;;-6.91;66.41
49825;BME280;35714;55.708;37.478;2023-02-28T02:04:43;99685.38;;;-6.90;66.53
49825;BME280;35714;55.708;37.478;2023-02-28T02:07:12;99683.91;;;-6.94;66.63
49825;BME280;35714;55.708;37.478;2023-02-28T02:09:42;99675.91;;;-6.92;66.82
49825;BME280;35714;55.708;37.478;2023-02-28T02:15:10;99655.63;;;-6.92;66.61
49825;BME280;35714;55.708;37.478;2023-02-28T02:17:50;99652.06;;;-6.91;66.49
49825;BME280;35714;55.708;37.478;2023-02-28T02:25:52;99663.31;;;-6.89;66.40
49825;BME280;35714;55.708;37.478;2023-02-28T02:31:28;99660.06;;;-6.92;66.18
49825;BME280;35714;55.708;37.478;2023-02-28T02:37:32;99645.38;;;-6.83;66.41
49825;BME280;35714;55.708;37.478;2023-02-28T02:40:00;99649.44;;;-6.79;66.13
49825;BME280;35714;55.708;37.478;2023-02-28T02:42:55;99639.34;;;-6.85;66.35
49825;BME280;35714;55.708;37.478;2023-02-28T02:45:45;99639.22;;;-6.84;66.42
49825;BME280;35714;55.708;37.478;2023-02-28T02:48:16;99630.97;;;-6.79;66.33
49825;BME280;35714;55.708;37.478;2023-02-28T02:50:50;99629.56;;;-6.83;66.32
49825;BME280;35714;55.708;37.478;2023-02-28T02:53:18;99605.56;;;-6.92;66.21
49825;BME280;35714;55.708;37.478;2023-02-28T02:55:49;99612.75;;;-6.82;66.10
49825;BME280;35714;55.708;37.478;2023-02-28T02:58:24;99624.28;;;-6.83;66.07
49825;BME280;35714;55.708;37.478;2023-02-28T03:00:54;99608.09;;;-6.79;66.01
49825;BME280;35714;55.708;37.478;2023-02-28T03:03:22;99605.59;;;-6.80;65.78
49825;BME280;35714;55.708;37.478;2023-02-28T03:05:58;99599.34;;;-6.79;65.98
49825;BME280;35714;55.708;37.478;2023-02-28T03:08:25;99580.66;;;-6.87;65.95
49825;BME280;35714;55.708;37.478;2023-02-28T03:10:56;99585.69;;;-6.84;65.70
49825;BME280;35714;55.708;37.478;2023-02-28T03:13:41;99575.38;;;-6.76;65.69
49825;BME280;35714;55.708;37.478;2023-02-28T03:19:19;99576.81;;;-6.83;65.77
49825;BME280;35714;55.708;37.478;2023-02-28T03:25:18;99571.78;;;-6.86;65.98
49825;BME280;35714;55.708;37.478;2023-02-28T03:30:24;99563.75;;;-6.85;65.65
49825;BME280;35714;55.708;37.478;2023-02-28T03:33:02;99547.56;;;-6.92;65.57
49825;BME280;35714;55.708;37.478;2023-02-28T03:35:39;99537.75;;;-6.90;65.82
49825;BME280;35714;55.708;37.478;2023-02-28T03:38:33;99550.09;;;-6.90;65.92
49825;BME280;35714;55.708;37.478;2023-02-28T03:41:09;99535.72;;;-6.86;65.97
49825;BME280;35714;55.708;37.478;2023-02-28T03:43:39;99530.09;;;-6.93;65.66
49825;BME280;35714;55.708;37.478;2023-02-28T03:46:10;99527.94;;;-6.87;65.58
49825;BME280;35714;55.708;37.478;2023-02-28T03:48:42;99541.69;;;-6.84;65.79
49825;BME280;35714;55.708;37.478;2023-02-28T03:51:14;99536.19;;;-6.69;65.48
49825;BME280;35714;55.708;37.478;2023-02-28T03:53:48;99525.28;;;-6.76;65.38
49825;BME280;35714;55.708;37.478;2023-02-28T03:56:27;99509.13;;;-6.83;65.89
49825;BME280;35714;55.708;37.478;2023-02-28T03:59:21;99511.28;;;-6.88;66.48
49825;BME280;35714;55.708;37.478;2023-02-28T04:01:49;99507.09;;;-6.91;65.92
49825;BME280;35714;55.708;37.478;2023-02-28T04:04:16;99506.13;;;-6.78;65.56
49825;BME280;35714;55.708;37.478;2023-02-28T04:06:43;99495.81;;;-6.81;65.85
49825;BME280;35714;55.708;37.478;2023-02-28T04:09:11;99495.47;;;-6.88;66.04
49825;BME280;35714;55.708;37.478;2023-02-28T04:11:55;99486.22;;;-6.94;66.56
49825;BME280;35714;55.708;37.478;2023-02-28T04:14:21;99476.91;;;-6.98;65.72
49825;BME280;35714;55.708;37.478;2023-02-28T04:16:48;99476.78;;;-6.96;66.19
49825;BME280;35714;55.708;37.478;2023-02-28T04:19:14;99487.69;;;-6.90;65.96
49825;BME280;35714;55.708;37.478;2023-02-28T04:21:44;99471.63;;;-6.86;65.62
49825;BME280;35714;55.708;37.478;2023-02-28T04:24:13;99475.66;;;-6.82;65.00
49825;BME280;35714;55.708;37.478;2023-02-28T04:26:44;99480.47;;;-6.87;65.39
49825;BME280;35714;55.708;37.478;2023-02-28T04:29:11;99480.25;;;-6.84;65.03
49825;BME280;35714;55.708;37.478;2023-02-28T04:31:38;99506.13;;;-6.78;64.42
49825;BME280;35714;55.708;37.478;2023-02-28T04:34:04;99472.78;;;-6.79;64.49
49825;BME280;35714;55.708;37.478;2023-02-28T04:36:30;99469.09;;;-6.88;64.69
49825;BME280;35714;55.708;37.478;2023-02-28T04:38:56;99460.47;;;-6.79;64.48
49825;BME280;35714;55.708;37.478;2023-02-28T04:41:23;99473.41;;;-6.76;63.64
49825;BME280;35714;55.708;37.478;2023-02-28T04:43:50;99456.34;;;-6.72;63.84
49825;BME280;35714;55.708;37.478;2023-02-28T04:46:15;99452.56;;;-6.79;63.94
49825;BME280;35714;55.708;37.478;2023-02-28T04:48:42;99455.06;;;-6.77;64.28
49825;BME280;35714;55.708;37.478;2023-02-28T04:51:12;99434.69;;;-6.75;64.09
49825;BME280;35714;55.708;37.478;2023-02-28T04:53:39;99431.56;;;-6.69;63.77
49825;BME280;35714;55.708;37.478;2023-02-28T04:56:06;99422.69;;;-6.68;63.61
49825;BME280;35714;55.708;37.478;2023-02-28T04:58:32;99433.31;;;-6.58;63.52
49825;BME280;35714;55.708;37.478;2023-02-28T05:01:04;99419.53;;;-6.62;63.20
49825;BME280;35714;55.708;37.478;2023-02-28T05:03:29;99423.84;;;-6.61;63.23
49825;BME280;35714;55.708;37.478;2023-02-28T05:05:55;99428.69;;;-6.45;62.72
49825;BME280;35714;55.708;37.478;2023-02-28T05:08:20;99423.81;;;-6.49;62.88
49825;BME280;35714;55.708;37.478;2023-02-28T05:10:46;99416.44;;;-6.13;61.06
49825;BME280;35714;55.708;37.478;2023-02-28T05:13:12;99404.16;;;-6.03;60.01
49825;BME280;35714;55.708;37.478;2023-02-28T05:15:38;99400.34;;;-6.10;60.41
49825;BME280;35714;55.708;37.478;2023-02-28T05:18:04;99401.84;;;-5.96;60.31
49825;BME280;35714;55.708;37.478;2023-02-28T05:20:29;99388.84;;;-5.78;58.75
49825;BME280;35714;55.708;37.478;2023-02-28T05:22:56;99403.28;;;-5.83;58.35
49825;BME280;35714;55.708;37.478;2023-02-28T05:25:23;99376.34;;;-5.76;58.31
49825;BME280;35714;55.708;37.478;2023-02-28T05:27:49;99368.97;;;-5.83;58.60
49825;BME280;35714;55.708;37.478;2023-02-28T05:30:15;99344.28;;;-6.03;59.16
49825;BME280;35714;55.708;37.478;2023-02-28T05:32:41;99353.50;;;-5.97;59.40
49825;BME280;35714;55.708;37.478;2023-02-28T05:35:09;99352.69;;;-5.88;59.59
49825;BME280;35714;55.708;37.478;2023-02-28T05:37:35;99356.03;;;-5.86;59.46
49825;BME280;35714;55.708;37.478;2023-02-28T05:40:01;99323.28;;;-5.73;58.36
49825;BME280;35714;55.708;37.478;2023-02-28T05:42:28;99337.97;;;-5.81;58.38
49825;BME280;35714;55.708;37.478;2023-02-28T05:44:53;99322.69;;;-5.77;58.04
49825;BME280;35714;55.708;37.478;2023-02-28T05:47:19;99331.41;;;-5.55;57.41
49825;BME280;35714;55.708;37.478;2023-02-28T05:49:44;99321.38;;;-5.52;57.05
49825;BME280;35714;55.708;37.478;2023-02-28T05:52:10;99327.69;;;-5.33;56.49
49825;BME280;35714;55.708;37.478;2023-02-28T05:54:36;99309.53;;;-5.17;55.75
49825;BME280;35714;55.708;37.478;2023-02-28T05:57:01;99298.41;;;-5.11;55.80
49825;BME280;35714;55.708;37.478;2023-02-28T05:59:27;99303.28;;;-4.86;54.78
49825;BME280;35714;55.708;37.478;2023-02-28T06:01:52;99287.97;;;-4.83;55.31
49825;BME280;35714;55.708;37.478;2023-02-28T06:04:20;99274.75;;;-4.63;54.56
49825;BME280;35714;55.708;37.478;2023-02-28T06:06:49;99270.50;;;-4.37;53.63
49825;BME280;35714;55.708;37.478;2023-02-28T06:09:16;99270.06;;;-4.22;53.02
49825;BME280;35714;55.708;37.478;2023-02-28T06:11:43;99271.03;;;-4.23;53.81
49825;BME280;35714;55.708;37.478;2023-02-28T06:14:15;99252.19;;;-4.20;53.39
49825;BME280;35714;55.708;37.478;2023-02-28T06:16:42;99242.31;;;-4.18;52.87
49825;BME280;35714;55.708;37.478;2023-02-28T06:19:09;99266.16;;;-4.18;52.76
49825;BME280;35714;55.708;37.478;2023-02-28T06:21:34;99238.44;;;-4.24;52.97
49825;BME280;35714;55.708;37.478;2023-02-28T06:24:00;99234.78;;;-4.13;52.38
49825;BME280;35714;55.708;37.478;2023-02-28T06:26:26;99222.69;;;-4.25;52.67
49825;BME280;35714;55.708;37.478;2023-02-28T06:28:52;99228.25;;;-3.91;51.62
49825;BME280;35714;55.708;37.478;2023-02-28T06:31:18;99215.16;;;-3.92;51.54
49825;BME280;35714;55.708;37.478;2023-02-28T06:33:45;99220.94;;;-3.79;51.38
49825;BME280;35714;55.708;37.478;2023-02-28T06:36:11;99211.56;;;-3.91;51.96
49825;BME280;35714;55.708;37.478;2023-02-28T06:38:38;99210.84;;;-3.66;51.04
49825;BME280;35714;55.708;37.478;2023-02-28T06:41:04;99231.06;;;-3.65;50.94
49825;BME280;35714;55.708;37.478;2023-02-28T06:43:33;99211.31;;;-3.52;50.04
49825;BME280;35714;55.708;37.478;2023-02-28T06:46:01;99191.69;;;-3.59;49.96
49825;BME280;35714;55.708;37.478;2023-02-28T06:48:27;99207.91;;;-3.45;50.04
49825;BME280;35714;55.708;37.478;2023-02-28T06:51:04;99204.41;;;-3.27;49.29
49825;BME280;35714;55.708;37.478;2023-02-28T06:53:30;99169.38;;;-3.39;50.11
49825;BME280;35714;55.708;37.478;2023-02-28T06:55:56;99181.78;;;-3.21;49.79
49825;BME280;35714;55.708;37.478;2023-02-28T06:58:22;99159.19;;;-3.26;50.30
49825;BME280;35714;55.708;37.478;2023-02-28T07:00:51;99168.69;;;-3.05;49.70
49825;BME280;35714;55.708;37.478;2023-02-28T07:03:17;99166.13;;;-2.88;49.33
49825;BME280;35714;55.708;37.478;2023-02-28T07:05:44;99163.84;;;-2.83;49.04
49825;BME280;35714;55.708;37.478;2023-02-28T07:08:09;99131.91;;;-3.00;49.87
49825;BME280;35714;55.708;37.478;2023-02-28T07:10:38;99125.84;;;-3.10;50.08
49825;BME280;35714;55.708;37.478;2023-02-28T07:13:05;99125.03;;;-3.11;50.64
49825;BME280;35714;55.708;37.478;2023-02-28T07:15:31;99132.25;;;-2.95;50.41
49825;BME280;35714;55.708;37.478;2023-02-28T07:17:56;99120.25;;;-3.07;51.27
49825;BME280;35714;55.708;37.478;2023-02-28T07:20:23;99133.03;;;-3.02;51.82
49825;BME280;35714;55.708;37.478;2023-02-28T07:22:49;99114.06;;;-2.90;51.66
49825;BME280;35714;55.708;37.478;2023-02-28T07:25:26;99094.16;;;-2.94;51.73
49825;BME280;35714;55.708;37.478;2023-02-28T07:27:53;99121.44;;;-2.75;51.53
49825;BME280;35714;55.708;37.478;2023-02-28T07:30:19;99093.13;;;-2.93;52.50
49825;BME280;35714;55.708;37.478;2023-02-28T07:32:45;99112.66;;;-2.76;52.06
49825;BME280;35714;55.708;37.478;2023-02-28T07:35:11;99107.81;;;-2.80;52.10
49825;BME280;35714;55.708;37.478;2023-02-28T07:37:36;99085.91;;;-2.82;52.63
49825;BME280;35714;55.708;37.478;2023-02-28T07:40:04;99101.47;;;-2.87;52.64
49825;BME280;35714;55.708;37.478;2023-02-28T07:42:37;99084.56;;;-2.86;52.65
49825;BME280;35714;55.708;37.478;2023-02-28T07:45:04;99077.59;;;-2.87;52.85
49825;BME280;35714;55.708;37.478;2023-02-28T07:47:30;99077.81;;;-2.81;53.01
49825;BME280;35714;55.708;37.478;2023-02-28T07:49:57;99081.59;;;-2.49;52.05
49825;BME280;35714;55.708;37.478;2023-02-28T07:52:23;99064.53;;;-2.46;52.48
49825;BME280;35714;55.708;37.478;2023-02-28T07:54:50;99072.53;;;-2.38;52.32
49825;BME280;35714;55.708;37.478;2023-02-28T07:57:15;99077.50;;;-2.35;52.13
49825;BME280;35714;55.708;37.478;2023-02-28T07:59:41;99068.66;;;-2.44;53.34
49825;BME280;35714;55.708;37.478;2023-02-28T08:02:12;99048.84;;;-2.23;53.16
49825;BME280;35714;55.708;37.478;2023-02-28T08:04:38;99061.84;;;-2.04;52.55
49825;BME280;35714;55.708;37.478;2023-02-28T08:07:04;99056.03;;;-1.99;52.64
49825;BME280;35714;55.708;37.478;2023-02-28T08:09:29;99055.06;;;-1.73;51.64
49825;BME280;35714;55.708;37.478;2023-02-28T08:11:55;99048.09;;;-1.74;51.50
49825;BME280;35714;55.708;37.478;2023-02-28T08:14:21;99047.59;;;-1.78;51.84
49825;BME280;35714;55.708;37.478;2023-02-28T08:16:46;99038.13;;;-1.80;51.59
49825;BME280;35714;55.708;37.478;2023-02-28T08:19:12;99032.16;;;-1.74;51.11
49825;BME280;35714;55.708;37.478;2023-02-28T08:21:38;99028.16;;;-1.78;51.80
49825;BME280;35714;55.708;37.478;2023-02-28T08:24:03;99017.53;;;-1.78;52.17
49825;BME280;35714;55.708;37.478;2023-02-28T08:26:29;98997.94;;;-1.69;51.94
49825;BME280;35714;55.708;37.478;2023-02-28T08:28:55;98986.78;;;-1.56;51.46
49825;BME280;35714;55.708;37.478;2023-02-28T08:31:20;98986.94;;;-1.58;52.36
49825;BME280;35714;55.708;37.478;2023-02-28T08:33:47;98951.38;;;-1.65;52.49
49825;BME280;35714;55.708;37.478;2023-02-28T08:36:15;98977.97;;;-1.49;52.57
49825;BME280;35714;55.708;37.478;2023-02-28T08:38:40;98960.47;;;-1.27;52.32
49825;BME280;35714;55.708;37.478;2023-02-28T08:41:09;98962.63;;;-1.22;52.31
49825;BME280;35714;55.708;37.478;2023-02-28T08:43:35;98991.72;;;-1.20;51.98
49825;BME280;35714;55.708;37.478;2023-02-28T08:46:01;99055.38;;;-1.11;51.64
49825;BME280;35714;55.708;37.478;2023-02-28T08:48:28;99040.13;;;-1.33;52.25
49825;BME280;35714;55.708;37.478;2023-02-28T08:50:59;99040.44;;;-1.36;52.45
49825;BME280;35714;55.708;37.478;2023-02-28T08:53:25;99037.63;;;-1.35;52.57
49825;BME280;35714;55.708;37.478;2023-02-28T08:56:04;99019.47;;;-1.23;53.28
49825;BME280;35714;55.708;37.478;2023-02-28T08:58:30;99024.66;;;-1.30;53.45
49825;BME280;35714;55.708;37.478;2023-02-28T09:00:56;99042.75;;;-1.17;53.15
49825;BME280;35714;55.708;37.478;2023-02-28T09:03:22;99026.44;;;-1.14;52.93
49825;BME280;35714;55.708;37.478;2023-02-28T09:05:55;99005.53;;;-1.25;53.44
49825;BME280;35714;55.708;37.478;2023-02-28T09:08:22;98997.56;;;-1.33;53.75
49825;BME280;35714;55.708;37.478;2023-02-28T09:10:47;99018.16;;;-1.27;53.78
49825;BME280;35714;55.708;37.478;2023-02-28T09:13:13;99011.00;;;-1.27;53.70
49825;BME280;35714;55.708;37.478;2023-02-28T09:15:39;98981.59;;;-1.33;53.68
49825;BME280;35714;55.708;37.478;2023-02-28T09:18:05;98998.88;;;-1.37;53.92
49825;BME280;35714;55.708;37.478;2023-02-28T09:20:30;98969.31;;;-1.34;54.04
49825;BME280;35714;55.708;37.478;2023-02-28T09:22:56;98954.31;;;-1.19;53.50
49825;BME280;35714;55.708;37.478;2023-02-28T09:25:21;98959.31;;;-1.32;54.08
49825;BME280;35714;55.708;37.478;2023-02-28T09:27:47;98941.34;;;-1.22;53.73
49825;BME280;35714;55.708;37.478;2023-02-28T09:30:13;98942.34;;;-1.15;53.56
49825;BME280;35714;55.708;37.478;2023-02-28T09:32:38;98973.25;;;-1.14;53.63
49825;BME280;35714;55.708;37.478;2023-02-28T09:35:05;98956.75;;;-1.09;53.27
49825;BME280;35714;55.708;37.478;2023-02-28T09:37:30;98975.94;;;-1.22;54.03
49825;BME280;35714;55.708;37.478;2023-02-28T09:39:57;98975.94;;;-1.22;54.19
49825;BME280;35714;55.708;37.478;2023-02-28T09:42:32;98974.94;;;-1.21;53.94
49825;BME280;35714;55.708;37.478;2023-02-28T09:45:01;98961.63;;;-1.29;54.42
49825;BME280;35714;55.708;37.478;2023-02-28T09:47:38;98966.94;;;-1.29;54.64
49825;BME280;35714;55.708;37.478;2023-02-28T09:50:29;98966.19;;;-0.90;53.98
49825;BME280;35714;55.708;37.478;2023-02-28T09:52:58;98946.25;;;-1.02;53.92
49825;BME280;35714;55.708;37.478;2023-02-28T09:55:33;98948.31;;;-1.13;54.41
49825;BME280;35714;55.708;37.478;2023-02-28T09:58:02;98928.34;;;-1.17;54.53
49825;BME280;35714;55.708;37.478;2023-02-28T10:00:32;98917.03;;;-1.11;54.58
49825;BME280;35714;55.708;37.478;2023-02-28T10:03:32;98933.41;;;-0.91;53.91
49825;BME280;35714;55.708;37.478;2023-02-28T10:06:15;98918.94;;;-0.88;53.76
49825;BME280;35714;55.708;37.478;2023-02-28T10:09:04;98916.34;;;-1.04;54.57
49825;BME280;35714;55.708;37.478;2023-02-28T10:11:33;98938.06;;;-0.84;54.19
49825;BME280;35714;55.708;37.478;2023-02-28T10:14:06;98913.13;;;-0.92;54.29
49825;BME280;35714;55.708;37.478;2023-02-28T10:22:17;98884.03;;;-0.93;54.48
49825;BME280;35714;55.708;37.478;2023-02-28T10:24:45;98885.75;;;-1.09;55.20
49825;BME280;35714;55.708;37.478;2023-02-28T10:29:49;98876.56;;;-0.98;55.19
49825;BME280;35714;55.708;37.478;2023-02-28T10:32:18;98886.97;;;-0.80;54.82
49825;BME280;35714;55.708;37.478;2023-02-28T10:34:45;98883.38;;;-0.95;54.86
49825;BME280;35714;55.708;37.478;2023-02-28T10:37:16;98867.47;;;-1.03;55.74
49825;BME280;35714;55.708;37.478;2023-02-28T10:39:45;98869.06;;;-0.94;55.71
49825;BME280;35714;55.708;37.478;2023-02-28T10:42:29;98841.03;;;-0.82;54.96
49825;BME280;35714;55.708;37.478;2023-02-28T10:45:11;98862.72;;;-0.93;55.50
49825;BME280;35714;55.708;37.478;2023-02-28T10:47:49;98871.28;;;-1.06;56.22
49825;BME280;35714;55.708;37.478;2023-02-28T11:01:26;98843.34;;;-1.02;56.39
49825;BME280;35714;55.708;37.478;2023-02-28T11:03:59;98852.78;;;-0.99;56.31
49825;BME280;35714;55.708;37.478;2023-02-28T11:06:29;98831.25;;;-1.13;56.79
49825;BME280;35714;55.708;37.478;2023-02-28T11:08:58;98862.28;;;-1.36;57.64
49825;BME280;35714;55.708;37.478;2023-02-28T11:11:26;98824.97;;;-1.20;57.29
49825;BME280;35714;55.708;37.478;2023-02-28T11:13:56;98821.34;;;-1.27;57.88
49825;BME280;35714;55.708;37.478;2023-02-28T11:16:33;98820.66;;;-1.21;58.01
49825;BME280;35714;55.708;37.478;2023-02-28T11:19:00;98808.81;;;-1.18;57.54
49825;BME280;35714;55.708;37.478;2023-02-28T11:21:29;98822.66;;;-1.23;58.28
49825;BME280;35714;55.708;37.478;2023-02-28T11:24:02;98822.94;;;-1.10;57.68
49825;BME280;35714;55.708;37.478;2023-02-28T11:26:44;98812.84;;;-1.22;58.22
49825;BME280;35714;55.708;37.478;2023-02-28T11:29:23;98822.28;;;-1.20;58.29
49825;BME280;35714;55.708;37.478;2023-02-28T11:32:05;98817.66;;;-1.26;58.51
49825;BME280;35714;55.708;37.478;2023-02-28T11:34:37;98817.66;;;-1.26;58.54
49825;BME280;35714;55.708;37.478;2023-02-28T11:37:05;98817.94;;;-1.13;58.32
49825;BME280;35714;55.708;37.478;2023-02-28T11:39:34;98804.94;;;-1.07;58.02
49825;BME280;35714;55.708;37.478;2023-02-28T11:47:32;98797.59;;;-1.05;58.64
49825;BME280;35714;55.708;37.478;2023-02-28T11:52:54;98776.19;;;-1.12;58.95
49825;BME280;35714;55.708;37.478;2023-02-28T11:58:20;98783.94;;;-1.02;58.91
49825;BME280;35714;55.708;37.478;2023-02-28T12:09:44;98772.44;;;-1.18;61.80
49825;BME280;35714;55.708;37.478;2023-02-28T12:17:50;98772.16;;;-1.31;63.83
49825;BME280;35714;55.708;37.478;2023-02-28T12:20:41;98762.56;;;-1.40;64.00
49825;BME280;35714;55.708;37.478;2023-02-28T12:26:39;98755.81;;;-1.51;65.17
49825;BME280;35714;55.708;37.478;2023-02-28T12:29:19;98756.84;;;-1.29;64.45
49825;BME280;35714;55.708;37.478;2023-02-28T12:31:49;98752.28;;;-1.43;64.82
49825;BME280;35714;55.708;37.478;2023-02-28T12:34:21;98748.88;;;-1.29;64.42
49825;BME280;35714;55.708;37.478;2023-02-28T12:36:49;98743.94;;;-1.40;65.07
49825;BME280;35714;55.708;37.478;2023-02-28T12:39:27;98737.66;;;-1.39;65.63
49825;BME280;35714;55.708;37.478;2023-02-28T12:42:13;98733.97;;;-1.38;65.77
49825;BME280;35714;55.708;37.478;2023-02-28T12:44:55;98729.97;;;-1.34;66.34
49825;BME280;35714;55.708;37.478;2023-02-28T12:47:31;98728.19;;;-1.42;66.47
49825;BME280;35714;55.708;37.478;2023-02-28T12:50:22;98729.72;;;-1.48;66.83
49825;BME280;35714;55.708;37.478;2023-02-28T13:02:02;98690.13;;;-1.42;66.69
49825;BME280;35714;55.708;37.478;2023-02-28T13:08:04;98667.38;;;-1.22;65.76
49825;BME280;35714;55.708;37.478;2023-02-28T13:11:33;98657.09;;;-1.25;65.58
49825;BME280;35714;55.708;37.478;2023-02-28T13:14:45;98674.06;;;-1.26;65.26
49825;BME280;35714;55.708;37.478;2023-02-28T13:17:48;98636.31;;;-1.44;65.33
49825;BME280;35714;55.708;37.478;2023-02-28T13:20:36;98679.72;;;-1.29;65.83
49825;BME280;35714;55.708;37.478;2023-02-28T13:23:02;98664.78;;;-1.30;65.89
49825;BME280;35714;55.708;37.478;2023-02-28T13:28:12;98669.03;;;-1.21;65.60
49825;BME280;35714;55.708;37.478;2023-02-28T13:38:55;98663.66;;;-1.13;65.57
49825;BME280;35714;55.708;37.478;2023-02-28T13:49:28;98641.66;;;-1.06;65.13
49825;BME280;35714;55.708;37.478;2023-02-28T13:52:17;98634.03;;;-1.10;65.46
49825;BME280;35714;55.708;37.478;2023-02-28T13:54:58;98645.91;;;-0.97;65.57
49825;BME280;35714;55.708;37.478;2023-02-28T14:03:23;98631.44;;;-0.80;64.89
49825;BME280;35714;55.708;37.478;2023-02-28T14:09:02;98627.56;;;-0.92;65.34
49825;BME280;35714;55.708;37.478;2023-02-28T14:11:35;98630.50;;;-0.87;65.21
49825;BME280;35714;55.708;37.478;2023-02-28T14:14:03;98631.22;;;-0.93;65.77
49825;BME280;35714;55.708;37.478;2023-02-28T14:16:41;98639.88;;;-0.91;65.58
49825;BME280;35714;55.708;37.478;2023-02-28T14:19:27;98637.59;;;-0.79;65.41
49825;BME280;35714;55.708;37.478;2023-02-28T14:35:29;98602.88;;;-0.71;66.49
49825;BME280;35714;55.708;37.478;2023-02-28T14:38:05;98610.78;;;-0.78;67.33
49825;BME280;35714;55.708;37.478;2023-02-28T14:40:34;98599.28;;;-0.93;68.08
49825;BME280;35714;55.708;37.478;2023-02-28T14:43:03;98602.25;;;-0.88;68.55
49825;BME280;35714;55.708;37.478;2023-02-28T14:45:31;98601.41;;;-0.88;68.42
49825;BME280;35714;55.708;37.478;2023-02-28T14:47:58;98593.25;;;-0.87;68.57
49825;BME280;35714;55.708;37.478;2023-02-28T14:50:34;98580.13;;;-1.03;69.35
49825;BME280;35714;55.708;37.478;2023-02-28T14:53:00;98587.72;;;-1.00;69.54
49825;BME280;35714;55.708;37.478;2023-02-28T14:55:30;98583.41;;;-1.01;69.93
49825;BME280;35714;55.708;37.478;2023-02-28T14:57:58;98586.06;;;-1.01;70.06
49825;BME280;35714;55.708;37.478;2023-02-28T15:00:26;98581.75;;;-1.02;70.18
49825;BME280;35714;55.708;37.478;2023-02-28T15:02:53;98583.31;;;-0.93;70.22
49825;BME280;35714;55.708;37.478;2023-02-28T15:07:45;98582.22;;;-0.84;69.48
49825;BME280;35714;55.708;37.478;2023-02-28T15:10:32;98583.91;;;-0.83;69.58
49825;BME280;35714;55.708;37.478;2023-02-28T15:13:01;98582.69;;;-0.80;69.42
49825;BME280;35714;55.708;37.478;2023-02-28T15:15:41;98580.59;;;-0.85;69.73
49825;BME280;35714;55.708;37.478;2023-02-28T15:18:14;98580.88;;;-0.65;69.28